sensor_id;sensor_type;location;lat;lon;timestamp;temperature;humidity
20337;DHT22;10326;53.660;10.200;2023-01-16T00:02:18;8.30;82.70
20337;DHT22;10326;53.660;10.200;2023-01-16T00:04:45;8.30;82.60
20337;DHT22;10326;53.660;10.200;2023-01-16T00:07:13;8.30;82.60
20337;DHT22;10326;53.660;10.200;2023-01-16T00:09:40;8.30;82.70
20337;DHT22;10326;53.660;10.200;2023-01-16T00:12:07;8.30;82.70
20337;DHT22;10326;53.660;10.200;2023-01-16T00:14:34;8.30;82.70
20337;DHT22;10326;53.660;10.200;2023-01-16T00:17:03;8.30;82.70
20337;DHT22;10326;53.660;10.200;2023-01-16T00:19:30;8.30;82.70
20337;DHT22;10326;53.660;10.200;2023-01-16T00:21:57;8.30;82.70
20337;DHT22;10326;53.660;10.200;2023-01-16T00:24:24;8.30;82.70
20337;DHT22;10326;53.660;10.200;2023-01-16T00:26:51;8.30;82.70
20337;DHT22;10326;53.660;10.200;2023-01-16T00:29:19;8.30;82.70
20337;DHT22;10326;53.660;10.200;2023-01-16T00:31:46;8.30;82.70
20337;DHT22;10326;53.660;10.200;2023-01-16T00:34:14;8.30;82.70
20337;DHT22;10326;53.660;10.200;2023-01-16T00:36:42;8.40;82.80
20337;DHT22;10326;53.660;10.200;2023-01-16T00:39:09;8.40;82.80
20337;DHT22;10326;53.660;10.200;2023-01-16T00:41:36;8.40;83.40
20337;DHT22;10326;53.660;10.200;2023-01-16T00:44:04;8.40;82.90
20337;DHT22;10326;53.660;10.200;2023-01-16T00:46:31;8.40;82.90
20337;DHT22;10326;53.660;10.200;2023-01-16T00:48:58;8.40;82.90
20337;DHT22;10326;53.660;10.200;2023-01-16T00:51:27;8.50;82.90
20337;DHT22;10326;53.660;10.200;2023-01-16T00:53:54;8.50;82.90
20337;DHT22;10326;53.660;10.200;2023-01-16T00:56:21;8.50;82.90
20337;DHT22;10326;53.660;10.200;2023-01-16T00:58:48;8.50;82.80
20337;DHT22;10326;53.660;10.200;2023-01-16T01:01:15;8.50;82.90
20337;DHT22;10326;53.660;10.200;2023-01-16T01:03:43;8.50;82.90
20337;DHT22;10326;53.660;10.200;2023-01-16T01:06:10;8.60;83.00
20337;DHT22;10326;53.660;10.200;2023-01-16T01:08:39;8.60;83.00
20337;DHT22;10326;53.660;10.200;2023-01-16T01:11:07;8.60;83.00
20337;DHT22;10326;53.660;10.200;2023-01-16T01:13:35;8.60;83.00
20337;DHT22;10326;53.660;10.200;2023-01-16T01:16:02;8.60;83.00
20337;DHT22;10326;53.660;10.200;2023-01-16T01:18:30;8.60;83.00
20337;DHT22;10326;53.660;10.200;2023-01-16T01:20:57;8.60;83.00
20337;DHT22;10326;53.660;10.200;2023-01-16T01:23:24;8.60;82.90
20337;DHT22;10326;53.660;10.200;2023-01-16T01:25:53;8.60;83.00
20337;DHT22;10326;53.660;10.200;2023-01-16T01:28:20;8.60;83.00
20337;DHT22;10326;53.660;10.200;2023-01-16T01:30:47;8.70;82.90
20337;DHT22;10326;53.660;10.200;2023-01-16T01:33:15;8.70;82.80
20337;DHT22;10326;53.660;10.200;2023-01-16T01:35:42;8.70;82.70
20337;DHT22;10326;53.660;10.200;2023-01-16T01:38:09;8.70;82.60
20337;DHT22;10326;53.660;10.200;2023-01-16T01:40:36;8.70;82.60
20337;DHT22;10326;53.660;10.200;2023-01-16T01:43:11;8.70;82.60
20337;DHT22;10326;53.660;10.200;2023-01-16T01:45:43;8.70;82.40
20337;DHT22;10326;53.660;10.200;2023-01-16T01:48:21;8.70;82.40
20337;DHT22;10326;53.660;10.200;2023-01-16T01:50:55;8.60;82.20
20337;DHT22;10326;53.660;10.200;2023-01-16T01:53:27;8.70;82.30
20337;DHT22;10326;53.660;10.200;2023-01-16T01:55:58;8.70;82.20
20337;DHT22;10326;53.660;10.200;2023-01-16T01:58:29;8.60;82.20
20337;DHT22;10326;53.660;10.200;2023-01-16T02:00:58;8.60;82.20
20337;DHT22;10326;53.660;10.200;2023-01-16T02:03:30;8.60;82.20
20337;DHT22;10326;53.660;10.200;2023-01-16T02:06:02;8.60;82.10
20337;DHT22;10326;53.660;10.200;2023-01-16T02:08:33;8.70;82.20
20337;DHT22;10326;53.660;10.200;2023-01-16T02:11:04;8.60;82.10
20337;DHT22;10326;53.660;10.200;2023-01-16T02:13:38;8.60;82.10
20337;DHT22;10326;53.660;10.200;2023-01-16T02:16:06;8.60;82.10
20337;DHT22;10326;53.660;10.200;2023-01-16T02:19:07;8.60;82.10
20337;DHT22;10326;53.660;10.200;2023-01-16T02:22:07;8.60;82.10
20337;DHT22;10326;53.660;10.200;2023-01-16T02:24:58;8.60;82.00
20337;DHT22;10326;53.660;10.200;2023-01-16T02:28:08;8.70;82.20
20337;DHT22;10326;53.660;10.200;2023-01-16T02:31:12;8.70;82.10
20337;DHT22;10326;53.660;10.200;2023-01-16T02:33:54;8.70;82.00
20337;DHT22;10326;53.660;10.200;2023-01-16T02:36:40;8.70;82.10
20337;DHT22;10326;53.660;10.200;2023-01-16T02:39:20;8.70;82.00
20337;DHT22;10326;53.660;10.200;2023-01-16T02:41:58;8.70;82.10
20337;DHT22;10326;53.660;10.200;2023-01-16T02:44:36;8.70;82.10
20337;DHT22;10326;53.660;10.200;2023-01-16T02:47:14;8.80;82.20
20337;DHT22;10326;53.660;10.200;2023-01-16T02:49:47;8.80;82.10
20337;DHT22;10326;53.660;10.200;2023-01-16T02:52:21;8.80;82.10
20337;DHT22;10326;53.660;10.200;2023-01-16T02:54:56;8.80;82.10
20337;DHT22;10326;53.660;10.200;2023-01-16T02:57:29;8.80;82.10
20337;DHT22;10326;53.660;10.200;2023-01-16T02:59:59;8.80;82.10
20337;DHT22;10326;53.660;10.200;2023-01-16T03:02:28;8.80;82.10
20337;DHT22;10326;53.660;10.200;2023-01-16T03:04:55;8.80;82.10
20337;DHT22;10326;53.660;10.200;2023-01-16T03:10:50;8.90;82.10
20337;DHT22;10326;53.660;10.200;2023-01-16T03:13:39;8.90;82.00
20337;DHT22;10326;53.660;10.200;2023-01-16T03:16:22;8.90;81.90
20337;DHT22;10326;53.660;10.200;2023-01-16T03:19:00;8.90;81.80
20337;DHT22;10326;53.660;10.200;2023-01-16T03:21:41;8.90;82.30
20337;DHT22;10326;53.660;10.200;2023-01-16T03:24:26;8.90;81.70
20337;DHT22;10326;53.660;10.200;2023-01-16T03:27:00;8.90;81.70
20337;DHT22;10326;53.660;10.200;2023-01-16T03:29:38;8.90;81.80
20337;DHT22;10326;53.660;10.200;2023-01-16T03:32:13;8.90;81.80
20337;DHT22;10326;53.660;10.200;2023-01-16T03:34:48;8.90;81.70
20337;DHT22;10326;53.660;10.200;2023-01-16T03:37:22;8.90;81.70
20337;DHT22;10326;53.660;10.200;2023-01-16T03:39:56;8.90;81.80
20337;DHT22;10326;53.660;10.200;2023-01-16T03:42:31;8.90;81.80
20337;DHT22;10326;53.660;10.200;2023-01-16T03:45:05;9.00;81.80
20337;DHT22;10326;53.660;10.200;2023-01-16T03:47:38;8.90;81.60
20337;DHT22;10326;53.660;10.200;2023-01-16T03:50:12;8.90;81.70
20337;DHT22;10326;53.660;10.200;2023-01-16T03:52:44;8.90;81.70
20337;DHT22;10326;53.660;10.200;2023-01-16T03:55:16;8.90;81.70
20337;DHT22;10326;53.660;10.200;2023-01-16T03:57:49;9.00;81.70
20337;DHT22;10326;53.660;10.200;2023-01-16T04:00:19;8.90;81.60
20337;DHT22;10326;53.660;10.200;2023-01-16T04:02:51;8.90;81.60
20337;DHT22;10326;53.660;10.200;2023-01-16T04:05:26;8.90;81.50
20337;DHT22;10326;53.660;10.200;2023-01-16T04:07:56;8.90;81.50
20337;DHT22;10326;53.660;10.200;2023-01-16T04:10:27;8.90;81.50
20337;DHT22;10326;53.660;10.200;2023-01-16T04:12:58;8.90;81.50
20337;DHT22;10326;53.660;10.200;2023-01-16T04:15:30;8.90;81.60
20337;DHT22;10326;53.660;10.200;2023-01-16T04:17:58;8.90;81.50
20337;DHT22;10326;53.660;10.200;2023-01-16T04:20:29;8.90;81.50
20337;DHT22;10326;53.660;10.200;2023-01-16T04:22:56;8.80;81.50
20337;DHT22;10326;53.660;10.200;2023-01-16T04:25:24;8.80;81.50
20337;DHT22;10326;53.660;10.200;2023-01-16T04:27:51;8.80;81.50
20337;DHT22;10326;53.660;10.200;2023-01-16T04:30:18;8.80;81.50
20337;DHT22;10326;53.660;10.200;2023-01-16T04:32:45;8.80;81.60
20337;DHT22;10326;53.660;10.200;2023-01-16T04:35:12;8.80;81.60
20337;DHT22;10326;53.660;10.200;2023-01-16T04:37:41;8.80;81.60
20337;DHT22;10326;53.660;10.200;2023-01-16T04:40:09;8.80;81.60
20337;DHT22;10326;53.660;10.200;2023-01-16T04:42:37;8.80;81.60
20337;DHT22;10326;53.660;10.200;2023-01-16T04:45:05;8.80;81.60
20337;DHT22;10326;53.660;10.200;2023-01-16T04:47:32;8.80;81.60
20337;DHT22;10326;53.660;10.200;2023-01-16T04:49:59;8.80;81.60
20337;DHT22;10326;53.660;10.200;2023-01-16T04:52:27;8.80;81.60
20337;DHT22;10326;53.660;10.200;2023-01-16T04:54:55;8.80;81.60
20337;DHT22;10326;53.660;10.200;2023-01-16T04:57:22;8.80;81.60
20337;DHT22;10326;53.660;10.200;2023-01-16T04:59:49;8.80;81.70
20337;DHT22;10326;53.660;10.200;2023-01-16T05:02:16;8.80;81.70
20337;DHT22;10326;53.660;10.200;2023-01-16T05:04:44;8.80;81.60
20337;DHT22;10326;53.660;10.200;2023-01-16T05:07:11;8.80;81.60
20337;DHT22;10326;53.660;10.200;2023-01-16T05:09:38;8.80;81.60
20337;DHT22;10326;53.660;10.200;2023-01-16T05:12:07;8.80;81.50
20337;DHT22;10326;53.660;10.200;2023-01-16T05:14:34;8.80;81.50
20337;DHT22;10326;53.660;10.200;2023-01-16T05:17:01;8.80;81.50
20337;DHT22;10326;53.660;10.200;2023-01-16T05:19:28;8.80;81.40
20337;DHT22;10326;53.660;10.200;2023-01-16T05:21:56;8.90;81.50
20337;DHT22;10326;53.660;10.200;2023-01-16T05:24:23;8.80;81.40
20337;DHT22;10326;53.660;10.200;2023-01-16T05:26:50;8.80;81.40
20337;DHT22;10326;53.660;10.200;2023-01-16T05:29:18;8.90;81.50
20337;DHT22;10326;53.660;10.200;2023-01-16T05:31:45;8.80;81.50
20337;DHT22;10326;53.660;10.200;2023-01-16T05:34:12;8.80;81.50
20337;DHT22;10326;53.660;10.200;2023-01-16T05:36:39;8.80;81.50
20337;DHT22;10326;53.660;10.200;2023-01-16T05:39:07;8.90;81.50
20337;DHT22;10326;53.660;10.200;2023-01-16T05:41:35;8.90;81.50
20337;DHT22;10326;53.660;10.200;2023-01-16T05:44:02;8.90;81.50
20337;DHT22;10326;53.660;10.200;2023-01-16T05:46:30;8.90;82.00
20337;DHT22;10326;53.660;10.200;2023-01-16T05:48:57;8.90;82.00
20337;DHT22;10326;53.660;10.200;2023-01-16T05:51:24;8.90;81.40
20337;DHT22;10326;53.660;10.200;2023-01-16T05:53:52;8.90;81.30
20337;DHT22;10326;53.660;10.200;2023-01-16T05:56:20;8.90;81.30
20337;DHT22;10326;53.660;10.200;2023-01-16T05:58:48;8.90;81.30
20337;DHT22;10326;53.660;10.200;2023-01-16T06:01:15;8.90;81.20
20337;DHT22;10326;53.660;10.200;2023-01-16T06:03:44;8.90;81.20
20337;DHT22;10326;53.660;10.200;2023-01-16T06:06:11;8.90;81.70
20337;DHT22;10326;53.660;10.200;2023-01-16T06:08:38;8.90;81.20
20337;DHT22;10326;53.660;10.200;2023-01-16T06:11:05;8.90;81.10
20337;DHT22;10326;53.660;10.200;2023-01-16T06:13:32;8.90;81.10
20337;DHT22;10326;53.660;10.200;2023-01-16T06:15:59;8.90;81.10
20337;DHT22;10326;53.660;10.200;2023-01-16T06:18:26;8.90;81.10
20337;DHT22;10326;53.660;10.200;2023-01-16T06:20:55;8.80;81.00
20337;DHT22;10326;53.660;10.200;2023-01-16T06:23:23;8.90;81.10
20337;DHT22;10326;53.660;10.200;2023-01-16T06:25:51;8.80;81.00
20337;DHT22;10326;53.660;10.200;2023-01-16T06:28:18;8.80;81.00
20337;DHT22;10326;53.660;10.200;2023-01-16T06:30:45;8.80;81.00
20337;DHT22;10326;53.660;10.200;2023-01-16T06:33:17;8.80;81.10
20337;DHT22;10326;53.660;10.200;2023-01-16T06:35:44;8.80;81.10
20337;DHT22;10326;53.660;10.200;2023-01-16T06:38:12;8.80;81.10
20337;DHT22;10326;53.660;10.200;2023-01-16T06:40:39;8.80;81.10
20337;DHT22;10326;53.660;10.200;2023-01-16T06:43:06;8.80;81.10
20337;DHT22;10326;53.660;10.200;2023-01-16T06:45:33;8.80;81.10
20337;DHT22;10326;53.660;10.200;2023-01-16T06:48:00;8.80;81.00
20337;DHT22;10326;53.660;10.200;2023-01-16T06:50:27;8.80;81.00
20337;DHT22;10326;53.660;10.200;2023-01-16T06:52:55;8.80;81.00
20337;DHT22;10326;53.660;10.200;2023-01-16T06:55:23;8.80;81.00
20337;DHT22;10326;53.660;10.200;2023-01-16T06:57:50;8.80;81.10
20337;DHT22;10326;53.660;10.200;2023-01-16T07:00:18;8.80;81.10
20337;DHT22;10326;53.660;10.200;2023-01-16T07:02:50;8.80;81.00
20337;DHT22;10326;53.660;10.200;2023-01-16T07:05:20;8.80;81.00
20337;DHT22;10326;53.660;10.200;2023-01-16T07:07:48;8.80;81.00
20337;DHT22;10326;53.660;10.200;2023-01-16T07:10:16;8.80;81.10
20337;DHT22;10326;53.660;10.200;2023-01-16T07:12:47;8.80;81.00
20337;DHT22;10326;53.660;10.200;2023-01-16T07:15:14;8.80;81.10
20337;DHT22;10326;53.660;10.200;2023-01-16T07:17:59;8.70;81.00
20337;DHT22;10326;53.660;10.200;2023-01-16T07:20:47;8.70;81.00
20337;DHT22;10326;53.660;10.200;2023-01-16T07:23:38;8.70;80.90
20337;DHT22;10326;53.660;10.200;2023-01-16T07:26:07;8.70;80.90
20337;DHT22;10326;53.660;10.200;2023-01-16T07:28:36;8.70;81.00
20337;DHT22;10326;53.660;10.200;2023-01-16T07:31:06;8.70;81.00
20337;DHT22;10326;53.660;10.200;2023-01-16T07:33:33;8.70;81.10
20337;DHT22;10326;53.660;10.200;2023-01-16T07:36:00;8.70;81.10
20337;DHT22;10326;53.660;10.200;2023-01-16T07:38:28;8.70;81.20
20337;DHT22;10326;53.660;10.200;2023-01-16T07:40:55;8.70;81.20
20337;DHT22;10326;53.660;10.200;2023-01-16T07:43:23;8.70;81.20
20337;DHT22;10326;53.660;10.200;2023-01-16T07:45:51;8.70;81.20
20337;DHT22;10326;53.660;10.200;2023-01-16T07:48:19;8.70;81.10
20337;DHT22;10326;53.660;10.200;2023-01-16T07:50:50;8.70;81.10
20337;DHT22;10326;53.660;10.200;2023-01-16T07:53:19;8.70;81.00
20337;DHT22;10326;53.660;10.200;2023-01-16T07:55:48;8.60;80.80
20337;DHT22;10326;53.660;10.200;2023-01-16T07:58:16;8.60;80.80
20337;DHT22;10326;53.660;10.200;2023-01-16T08:00:44;8.60;80.80
20337;DHT22;10326;53.660;10.200;2023-01-16T08:03:13;8.60;80.80
20337;DHT22;10326;53.660;10.200;2023-01-16T08:05:40;8.60;80.70
20337;DHT22;10326;53.660;10.200;2023-01-16T08:08:09;8.50;80.70
20337;DHT22;10326;53.660;10.200;2023-01-16T08:10:36;8.50;80.60
20337;DHT22;10326;53.660;10.200;2023-01-16T08:13:04;8.50;80.60
20337;DHT22;10326;53.660;10.200;2023-01-16T08:15:31;8.50;80.50
20337;DHT22;10326;53.660;10.200;2023-01-16T08:17:58;8.50;80.60
20337;DHT22;10326;53.660;10.200;2023-01-16T08:20:26;8.40;80.60
20337;DHT22;10326;53.660;10.200;2023-01-16T08:22:54;8.40;80.70
20337;DHT22;10326;53.660;10.200;2023-01-16T08:25:23;8.40;80.70
20337;DHT22;10326;53.660;10.200;2023-01-16T08:27:51;8.40;81.20
20337;DHT22;10326;53.660;10.200;2023-01-16T08:30:18;8.40;80.70
20337;DHT22;10326;53.660;10.200;2023-01-16T08:32:46;8.40;81.00
20337;DHT22;10326;53.660;10.200;2023-01-16T08:35:13;8.40;80.70
20337;DHT22;10326;53.660;10.200;2023-01-16T08:37:47;8.30;80.70
20337;DHT22;10326;53.660;10.200;2023-01-16T08:40:15;8.30;80.70
20337;DHT22;10326;53.660;10.200;2023-01-16T08:42:43;8.30;80.70
20337;DHT22;10326;53.660;10.200;2023-01-16T08:45:27;8.30;80.80
20337;DHT22;10326;53.660;10.200;2023-01-16T08:48:14;8.30;80.70
20337;DHT22;10326;53.660;10.200;2023-01-16T08:51:01;8.30;80.70
20337;DHT22;10326;53.660;10.200;2023-01-16T08:53:47;8.30;80.80
20337;DHT22;10326;53.660;10.200;2023-01-16T08:56:14;8.30;80.90
20337;DHT22;10326;53.660;10.200;2023-01-16T08:58:42;8.30;81.00
20337;DHT22;10326;53.660;10.200;2023-01-16T09:01:09;8.30;81.00
20337;DHT22;10326;53.660;10.200;2023-01-16T09:03:36;8.30;81.00
20337;DHT22;10326;53.660;10.200;2023-01-16T09:06:03;8.30;80.90
20337;DHT22;10326;53.660;10.200;2023-01-16T09:08:30;8.30;81.00
20337;DHT22;10326;53.660;10.200;2023-01-16T09:10:59;8.30;81.00
20337;DHT22;10326;53.660;10.200;2023-01-16T09:13:44;8.30;81.00
20337;DHT22;10326;53.660;10.200;2023-01-16T09:16:18;8.30;81.00
20337;DHT22;10326;53.660;10.200;2023-01-16T09:18:46;8.40;81.10
20337;DHT22;10326;53.660;10.200;2023-01-16T09:21:14;8.40;81.10
20337;DHT22;10326;53.660;10.200;2023-01-16T09:23:44;8.40;81.10
20337;DHT22;10326;53.660;10.200;2023-01-16T09:26:12;8.40;81.10
20337;DHT22;10326;53.660;10.200;2023-01-16T09:28:40;8.40;81.10
20337;DHT22;10326;53.660;10.200;2023-01-16T09:31:07;8.40;81.10
20337;DHT22;10326;53.660;10.200;2023-01-16T09:33:34;8.40;81.10
20337;DHT22;10326;53.660;10.200;2023-01-16T09:36:02;8.40;81.10
20337;DHT22;10326;53.660;10.200;2023-01-16T09:38:30;8.40;81.20
20337;DHT22;10326;53.660;10.200;2023-01-16T09:40:58;8.40;81.10
20337;DHT22;10326;53.660;10.200;2023-01-16T09:43:33;8.50;81.20
20337;DHT22;10326;53.660;10.200;2023-01-16T09:46:04;8.50;81.20
20337;DHT22;10326;53.660;10.200;2023-01-16T09:48:38;8.50;81.20
20337;DHT22;10326;53.660;10.200;2023-01-16T09:51:14;8.50;81.20
20337;DHT22;10326;53.660;10.200;2023-01-16T09:53:47;8.50;81.20
20337;DHT22;10326;53.660;10.200;2023-01-16T09:56:37;8.60;81.20
20337;DHT22;10326;53.660;10.200;2023-01-16T09:59:29;8.60;81.20
20337;DHT22;10326;53.660;10.200;2023-01-16T10:02:07;8.60;81.10
20337;DHT22;10326;53.660;10.200;2023-01-16T10:04:38;8.60;81.20
20337;DHT22;10326;53.660;10.200;2023-01-16T10:07:26;8.60;81.10
20337;DHT22;10326;53.660;10.200;2023-01-16T10:10:09;8.60;81.10
20337;DHT22;10326;53.660;10.200;2023-01-16T10:12:50;8.70;81.20
20337;DHT22;10326;53.660;10.200;2023-01-16T10:15:31;8.70;81.30
20337;DHT22;10326;53.660;10.200;2023-01-16T10:18:13;8.70;81.30
20337;DHT22;10326;53.660;10.200;2023-01-16T10:20:54;8.70;81.30
20337;DHT22;10326;53.660;10.200;2023-01-16T10:23:47;8.70;81.30
20337;DHT22;10326;53.660;10.200;2023-01-16T10:26:24;8.70;81.20
20337;DHT22;10326;53.660;10.200;2023-01-16T10:29:01;8.80;81.20
20337;DHT22;10326;53.660;10.200;2023-01-16T10:31:38;8.80;81.20
20337;DHT22;10326;53.660;10.200;2023-01-16T10:34:11;8.80;81.30
20337;DHT22;10326;53.660;10.200;2023-01-16T10:36:45;8.80;81.20
20337;DHT22;10326;53.660;10.200;2023-01-16T10:39:17;8.80;81.20
20337;DHT22;10326;53.660;10.200;2023-01-16T10:41:47;8.80;81.30
20337;DHT22;10326;53.660;10.200;2023-01-16T10:44:34;8.90;81.30
20337;DHT22;10326;53.660;10.200;2023-01-16T10:47:25;8.90;81.30
20337;DHT22;10326;53.660;10.200;2023-01-16T10:50:12;8.90;81.30
20337;DHT22;10326;53.660;10.200;2023-01-16T10:52:40;9.00;81.30
20337;DHT22;10326;53.660;10.200;2023-01-16T10:55:08;9.00;81.30
20337;DHT22;10326;53.660;10.200;2023-01-16T10:57:40;9.00;81.30
20337;DHT22;10326;53.660;10.200;2023-01-16T11:00:15;9.00;81.30
20337;DHT22;10326;53.660;10.200;2023-01-16T11:02:46;9.10;81.20
20337;DHT22;10326;53.660;10.200;2023-01-16T11:05:25;9.10;81.30
20337;DHT22;10326;53.660;10.200;2023-01-16T11:07:54;9.10;81.10
20337;DHT22;10326;53.660;10.200;2023-01-16T11:10:23;9.20;81.30
20337;DHT22;10326;53.660;10.200;2023-01-16T11:12:51;9.20;81.40
20337;DHT22;10326;53.660;10.200;2023-01-16T11:15:36;9.20;81.40
20337;DHT22;10326;53.660;10.200;2023-01-16T11:18:30;9.30;81.20
20337;DHT22;10326;53.660;10.200;2023-01-16T11:21:01;9.30;81.10
20337;DHT22;10326;53.660;10.200;2023-01-16T11:23:43;9.30;81.10
20337;DHT22;10326;53.660;10.200;2023-01-16T11:26:12;9.40;81.00
20337;DHT22;10326;53.660;10.200;2023-01-16T11:28:42;9.40;80.90
20337;DHT22;10326;53.660;10.200;2023-01-16T11:31:17;9.40;81.00
20337;DHT22;10326;53.660;10.200;2023-01-16T11:33:48;9.40;81.10
20337;DHT22;10326;53.660;10.200;2023-01-16T11:36:20;9.50;81.00
20337;DHT22;10326;53.660;10.200;2023-01-16T11:38:48;9.50;81.00
20337;DHT22;10326;53.660;10.200;2023-01-16T11:41:19;9.50;81.00
20337;DHT22;10326;53.660;10.200;2023-01-16T11:43:53;9.50;80.90
20337;DHT22;10326;53.660;10.200;2023-01-16T11:46:44;9.60;80.90
20337;DHT22;10326;53.660;10.200;2023-01-16T11:49:23;9.60;80.70
20337;DHT22;10326;53.660;10.200;2023-01-16T11:51:53;9.60;80.40
20337;DHT22;10326;53.660;10.200;2023-01-16T11:54:24;9.60;80.40
20337;DHT22;10326;53.660;10.200;2023-01-16T11:57:07;9.60;80.30
20337;DHT22;10326;53.660;10.200;2023-01-16T12:06:03;9.70;80.20
20337;DHT22;10326;53.660;10.200;2023-01-16T12:09:00;9.70;80.10
20337;DHT22;10326;53.660;10.200;2023-01-16T12:12:06;9.70;80.10
20337;DHT22;10326;53.660;10.200;2023-01-16T12:14:58;9.70;80.00
20337;DHT22;10326;53.660;10.200;2023-01-16T12:17:47;9.70;80.00
20337;DHT22;10326;53.660;10.200;2023-01-16T12:20:28;9.70;79.80
20337;DHT22;10326;53.660;10.200;2023-01-16T12:26:16;9.70;79.70
20337;DHT22;10326;53.660;10.200;2023-01-16T12:28:55;9.70;79.80
20337;DHT22;10326;53.660;10.200;2023-01-16T12:31:51;9.80;80.10
20337;DHT22;10326;53.660;10.200;2023-01-16T12:34:41;9.80;80.10
20337;DHT22;10326;53.660;10.200;2023-01-16T12:37:27;9.80;79.70
20337;DHT22;10326;53.660;10.200;2023-01-16T12:40:17;9.90;79.80
20337;DHT22;10326;53.660;10.200;2023-01-16T12:43:02;9.90;79.30
20337;DHT22;10326;53.660;10.200;2023-01-16T12:45:48;9.90;79.40
20337;DHT22;10326;53.660;10.200;2023-01-16T12:48:41;9.90;79.30
20337;DHT22;10326;53.660;10.200;2023-01-16T12:51:37;9.90;79.00
20337;DHT22;10326;53.660;10.200;2023-01-16T12:54:32;9.80;79.00
20337;DHT22;10326;53.660;10.200;2023-01-16T12:57:16;9.80;78.90
20337;DHT22;10326;53.660;10.200;2023-01-16T13:00:04;9.80;79.20
20337;DHT22;10326;53.660;10.200;2023-01-16T13:02:41;9.80;79.20
20337;DHT22;10326;53.660;10.200;2023-01-16T13:05:12;9.80;79.00
20337;DHT22;10326;53.660;10.200;2023-01-16T13:07:47;9.80;79.10
20337;DHT22;10326;53.660;10.200;2023-01-16T13:10:21;9.80;79.00
20337;DHT22;10326;53.660;10.200;2023-01-16T13:13:15;9.80;78.90
20337;DHT22;10326;53.660;10.200;2023-01-16T13:16:10;9.80;78.90
20337;DHT22;10326;53.660;10.200;2023-01-16T13:18:43;9.70;78.80
20337;DHT22;10326;53.660;10.200;2023-01-16T13:21:17;9.70;79.10
20337;DHT22;10326;53.660;10.200;2023-01-16T13:23:50;9.70;78.50
20337;DHT22;10326;53.660;10.200;2023-01-16T13:26:21;9.70;78.50
20337;DHT22;10326;53.660;10.200;2023-01-16T13:28:56;9.70;78.60
20337;DHT22;10326;53.660;10.200;2023-01-16T13:31:30;9.60;78.30
20337;DHT22;10326;53.660;10.200;2023-01-16T13:34:03;9.60;78.40
20337;DHT22;10326;53.660;10.200;2023-01-16T13:40:18;9.60;78.30
20337;DHT22;10326;53.660;10.200;2023-01-16T13:42:54;9.60;78.30
20337;DHT22;10326;53.660;10.200;2023-01-16T13:45:45;9.60;78.60
20337;DHT22;10326;53.660;10.200;2023-01-16T13:48:18;9.50;78.60
20337;DHT22;10326;53.660;10.200;2023-01-16T13:50:52;9.50;78.60
20337;DHT22;10326;53.660;10.200;2023-01-16T13:53:24;9.50;78.70
20337;DHT22;10326;53.660;10.200;2023-01-16T13:56:04;9.50;78.70
20337;DHT22;10326;53.660;10.200;2023-01-16T13:58:37;9.50;78.30
20337;DHT22;10326;53.660;10.200;2023-01-16T14:01:30;9.50;78.40
20337;DHT22;10326;53.660;10.200;2023-01-16T14:04:26;9.50;78.20
20337;DHT22;10326;53.660;10.200;2023-01-16T14:06:59;9.50;78.00
20337;DHT22;10326;53.660;10.200;2023-01-16T14:10:07;9.50;78.40
20337;DHT22;10326;53.660;10.200;2023-01-16T14:12:44;9.40;78.30
20337;DHT22;10326;53.660;10.200;2023-01-16T14:15:46;9.40;78.40
20337;DHT22;10326;53.660;10.200;2023-01-16T14:18:57;9.40;78.30
20337;DHT22;10326;53.660;10.200;2023-01-16T14:21:27;9.40;78.20
20337;DHT22;10326;53.660;10.200;2023-01-16T14:23:58;9.40;78.40
20337;DHT22;10326;53.660;10.200;2023-01-16T14:26:39;9.40;78.40
20337;DHT22;10326;53.660;10.200;2023-01-16T14:29:16;9.30;78.10
20337;DHT22;10326;53.660;10.200;2023-01-16T14:31:51;9.30;78.20
20337;DHT22;10326;53.660;10.200;2023-01-16T14:34:25;9.30;78.10
20337;DHT22;10326;53.660;10.200;2023-01-16T14:36:59;9.30;78.30
20337;DHT22;10326;53.660;10.200;2023-01-16T14:39:32;9.30;78.40
20337;DHT22;10326;53.660;10.200;2023-01-16T14:42:04;9.30;78.50
20337;DHT22;10326;53.660;10.200;2023-01-16T14:44:59;9.30;78.40
20337;DHT22;10326;53.660;10.200;2023-01-16T14:47:59;9.20;78.30
20337;DHT22;10326;53.660;10.200;2023-01-16T14:50:58;9.20;78.60
20337;DHT22;10326;53.660;10.200;2023-01-16T14:53:45;9.20;78.50
20337;DHT22;10326;53.660;10.200;2023-01-16T14:56:32;9.20;78.80
20337;DHT22;10326;53.660;10.200;2023-01-16T14:59:05;9.20;78.80
20337;DHT22;10326;53.660;10.200;2023-01-16T15:01:40;9.10;78.70
20337;DHT22;10326;53.660;10.200;2023-01-16T15:04:31;9.10;79.30
20337;DHT22;10326;53.660;10.200;2023-01-16T15:07:07;9.10;78.80
20337;DHT22;10326;53.660;10.200;2023-01-16T15:09:38;9.10;78.80
20337;DHT22;10326;53.660;10.200;2023-01-16T15:12:11;9.00;78.70
20337;DHT22;10326;53.660;10.200;2023-01-16T15:14:51;9.00;78.80
20337;DHT22;10326;53.660;10.200;2023-01-16T15:17:24;9.00;78.60
20337;DHT22;10326;53.660;10.200;2023-01-16T15:20:17;9.00;78.60
20337;DHT22;10326;53.660;10.200;2023-01-16T15:23:23;9.00;78.50
20337;DHT22;10326;53.660;10.200;2023-01-16T15:26:03;9.00;78.50
20337;DHT22;10326;53.660;10.200;2023-01-16T15:28:57;9.00;78.40
20337;DHT22;10326;53.660;10.200;2023-01-16T15:31:31;8.90;78.50
20337;DHT22;10326;53.660;10.200;2023-01-16T15:34:01;8.90;78.60
20337;DHT22;10326;53.660;10.200;2023-01-16T15:36:35;8.90;78.60
20337;DHT22;10326;53.660;10.200;2023-01-16T15:39:16;8.90;78.60
20337;DHT22;10326;53.660;10.200;2023-01-16T15:41:49;8.90;78.60
20337;DHT22;10326;53.660;10.200;2023-01-16T15:44:38;8.90;78.70
20337;DHT22;10326;53.660;10.200;2023-01-16T15:47:48;8.90;78.60
20337;DHT22;10326;53.660;10.200;2023-01-16T15:50:33;8.90;78.60
20337;DHT22;10326;53.660;10.200;2023-01-16T15:53:07;8.90;78.60
20337;DHT22;10326;53.660;10.200;2023-01-16T15:55:38;8.90;78.50
20337;DHT22;10326;53.660;10.200;2023-01-16T15:58:12;8.90;78.50
20337;DHT22;10326;53.660;10.200;2023-01-16T16:00:41;8.90;78.30
20337;DHT22;10326;53.660;10.200;2023-01-16T16:03:14;8.90;78.40
20337;DHT22;10326;53.660;10.200;2023-01-16T16:05:47;8.90;78.20
20337;DHT22;10326;53.660;10.200;2023-01-16T16:08:18;8.80;78.20
20337;DHT22;10326;53.660;10.200;2023-01-16T16:10:48;8.80;78.20
20337;DHT22;10326;53.660;10.200;2023-01-16T16:13:35;8.80;78.20
20337;DHT22;10326;53.660;10.200;2023-01-16T16:16:15;8.80;78.20
20337;DHT22;10326;53.660;10.200;2023-01-16T16:19:02;8.80;78.00
20337;DHT22;10326;53.660;10.200;2023-01-16T16:21:32;8.80;78.10
20337;DHT22;10326;53.660;10.200;2023-01-16T16:24:04;8.80;78.00
20337;DHT22;10326;53.660;10.200;2023-01-16T16:26:39;8.80;78.10
20337;DHT22;10326;53.660;10.200;2023-01-16T16:29:17;8.80;77.90
20337;DHT22;10326;53.660;10.200;2023-01-16T16:31:46;8.80;77.80